Chatuge Observed Data For Previous 48 Hours

Caption
Day and Hour Reservoir Elevation (behind dam)* Tailwater Elevation (below dam)* Average Hourly Discharge*
11/17/2017 2 AM EST 1,918.48 1,803.08 0
11/17/2017 3 AM EST 1,918.48 1,802.80 0
11/17/2017 4 AM EST 1,918.48 1,802.54 0
11/17/2017 5 AM EST 1,918.49 1,802.28 0
11/17/2017 6 AM EST 1,918.49 1,804.60 347
11/17/2017 7 AM EST 1,918.48 1,806.08 1,387
11/17/2017 8 AM EST 1,918.47 1,806.09 1,377
11/17/2017 9 AM EST 1,918.46 1,806.08 1,379
11/17/2017 10 AM EST 1,918.44 1,806.09 1,375
11/17/2017 11 AM EST 1,918.42 1,806.06 1,379
11/17/2017 12 PM EST 1,918.41 1,806.10 1,377
11/17/2017 1 PM EST 1,918.39 1,806.11 1,378
11/17/2017 2 PM EST 1,918.38 1,803.45 38
11/17/2017 3 PM EST 1,918.38 1,803.07 0
11/17/2017 4 PM EST 1,918.38 1,802.80 0
11/17/2017 5 PM EST 1,918.38 1,802.54 0
11/17/2017 6 PM EST 1,918.38 1,803.75 32
11/17/2017 7 PM EST 1,918.38 1,806.13 1,434
11/17/2017 8 PM EST 1,918.37 1,806.22 1,434
11/17/2017 9 PM EST 1,918.36 1,806.21 1,430
11/17/2017 10 PM EST 1,918.35 1,803.46 42
11/17/2017 11 PM EST 1,918.34 1,803.07 0
11/18/2017 12 AM EST 1,918.34 1,802.79 0
11/18/2017 1 AM EST 1,918.34 1,802.52 0
11/18/2017 2 AM EST 1,918.34 1,802.25 0
11/18/2017 3 AM EST 1,918.34 1,802.17 0
11/18/2017 4 AM EST 1,918.35 1,802.17 0
11/18/2017 5 AM EST 1,918.35 1,802.17 0
11/18/2017 6 AM EST 1,918.35 1,802.17 0
11/18/2017 7 AM EST 1,918.36 1,802.17 0
11/18/2017 8 AM EST 1,918.36 1,803.67 31
11/18/2017 9 AM EST 1,918.36 1,805.97 1,408
11/18/2017 10 AM EST 1,918.35 1,806.13 1,394
11/18/2017 11 AM EST 1,918.34 1,806.17 1,395
11/18/2017 12 PM EST 1,918.33 1,803.45 38
11/18/2017 1 PM EST 1,918.32 1,803.07 0
11/18/2017 2 PM EST 1,918.32 1,802.78 0
11/18/2017 3 PM EST 1,918.32 1,802.51 0
11/18/2017 4 PM EST 1,918.32 1,802.24 0
11/18/2017 5 PM EST 1,918.32 1,802.16 0
11/18/2017 6 PM EST 1,918.32 1,802.16 0
11/18/2017 7 PM EST 1,918.33 1,802.16 0
11/18/2017 8 PM EST 1,918.34 1,803.75 40
11/18/2017 9 PM EST 1,918.34 1,803.84 780
11/18/2017 10 PM EST 1,918.34 1,803.18 0
11/18/2017 11 PM EST 1,918.35 1,802.92 0
11/19/2017 12 AM EST 1,918.37 1,802.64 0
11/19/2017 1 AM EST 1,918.38 1,802.38 0
11/19/2017 2 AM EST 1,918.38 1,802.17 0
11/19/2017 3 AM EST 1,918.39 1,802.16 0
11/19/2017 4 AM EST 1,918.40 1,802.16 0

Elevations are in feet above sea level. Discharges are in cubic feet per second and are reported at the end of the hour.